Time;durP1;ratioP1;P1;durP2;ratioP2;P2;SDS_P1;SDS_P2;PMS_P1;PMS_P2;Temp;Humidity;BMP_temperature;BMP_pressure;BME280_temperature;BME280_humidity;BME280_pressure;Samples;Min_cycle;Max_cycle;Signal;HPM_P1;HPM_P2
2022/11/03 00:01:36;;;;;;;10.18;2.38;;;12.80;99.90;;;;;;4971856;28;20031;-82
2022/11/03 00:04:06;;;;;;;7.47;2.53;;;12.80;99.90;;;;;;4972006;28;20030;-82
2022/11/03 00:06:32;;;;;;;9.70;1.60;;;12.80;99.90;;;;;;4955704;28;20038;-82
2022/11/03 00:09:00;;;;;;;9.87;1.90;;;12.90;99.90;;;;;;4954489;28;20110;-82
2022/11/03 00:11:26;;;;;;;10.13;2.13;;;12.90;99.90;;;;;;4971725;28;20027;-82
2022/11/03 00:13:52;;;;;;;10.27;1.92;;;12.80;99.90;;;;;;4971518;28;20502;-82
2022/11/03 00:16:18;;;;;;;12.13;2.37;;;12.90;99.90;;;;;;4971457;28;20030;-81
2022/11/03 00:18:44;;;;;;;7.10;1.83;;;12.80;99.90;;;;;;4953896;28;20031;-81
2022/11/03 00:21:11;;;;;;;9.77;2.23;;;12.90;99.90;;;;;;4954340;28;20082;-82
2022/11/03 00:23:42;;;;;;;8.27;1.70;;;12.80;99.90;;;;;;4971665;28;20027;-82
2022/11/03 00:26:22;;;;;;;9.35;2.40;;;12.80;99.90;;;;;;4937956;28;20043;-81
2022/11/03 00:28:53;;;;;;;12.47;2.00;;;12.80;99.90;;;;;;4971157;28;20031;-81
2022/11/03 00:31:27;;;;;;;10.00;2.10;;;12.80;99.90;;;;;;4971511;28;20066;-81
2022/11/03 00:33:56;;;;;;;8.30;1.80;;;12.80;99.90;;;;;;4953912;28;20023;-81
2022/11/03 00:36:27;;;;;;;7.85;1.70;;;12.80;99.90;;;;;;4954010;28;20023;-81
2022/11/03 00:38:55;;;;;;;8.18;2.17;;;12.80;99.90;;;;;;4971009;28;20054;-81
2022/11/03 00:41:21;;;;;;;12.88;2.72;;;12.80;99.90;;;;;;4971145;28;20031;-81
2022/11/03 00:43:48;;;;;;;9.37;2.43;;;12.80;99.90;;;;;;4971355;28;20574;-81
2022/11/03 00:46:15;;;;;;;7.45;1.85;;;12.80;99.90;;;;;;4970782;28;20038;-81
2022/11/03 00:48:41;;;;;;;11.02;2.00;;;12.80;99.90;;;;;;4971072;28;20038;-81
2022/11/03 00:51:13;;;;;;;8.25;1.70;;;12.90;99.90;;;;;;4971061;28;20506;-81
2022/11/03 00:53:41;;;;;;;12.23;2.37;;;12.80;99.90;;;;;;4971187;28;20026;-81
2022/11/03 00:56:15;;;;;;;7.70;1.98;;;12.90;99.90;;;;;;4958867;28;20030;-81
2022/11/03 00:58:41;;;;;;;9.38;2.00;;;12.80;99.90;;;;;;4988958;28;20030;-82
2022/11/03 01:01:16;;;;;;;14.00;2.60;;;12.80;99.90;;;;;;4989165;28;20035;-81
2022/11/03 01:06:48;;;;;;;9.25;2.03;;;12.80;99.90;;;;;;4990443;28;20122;-82
2022/11/03 01:06:50;;;;;;;12.13;2.42;;;12.80;99.90;;;;;;4989512;28;20041;-81
2022/11/03 01:09:21;;;;;;;9.47;1.83;;;12.80;99.90;;;;;;4990393;28;20073;-81
2022/11/03 01:11:49;;;;;;;9.67;2.40;;;12.80;99.90;;;;;;4990380;28;20039;-81
2022/11/03 01:14:15;;;;;;;12.85;2.00;;;12.80;99.90;;;;;;4990468;28;20038;-81
2022/11/03 01:16:42;;;;;;;9.25;2.25;;;12.80;99.90;;;;;;4988939;28;20034;-81
2022/11/03 01:19:08;;;;;;;11.73;2.70;;;12.80;99.90;;;;;;4990235;28;20038;-82
2022/11/03 01:21:34;;;;;;;10.30;2.15;;;12.80;99.90;;;;;;4990172;28;20034;-82
2022/11/03 01:24:01;;;;;;;8.00;2.42;;;12.80;99.90;;;;;;5005671;28;20055;-82
2022/11/03 01:26:27;;;;;;;12.50;2.63;;;12.80;99.90;;;;;;4990015;28;20031;-82
2022/11/03 01:28:53;;;;;;;10.80;2.70;;;12.70;99.90;;;;;;4990119;28;20117;-82
2022/11/03 01:31:23;;;;;;;9.07;2.22;;;12.80;99.90;;;;;;4990055;28;20054;-82
2022/11/03 01:33:50;;;;;;;9.03;2.23;;;12.70;99.90;;;;;;4990533;28;20022;-81
2022/11/03 01:36:17;;;;;;;11.45;1.90;;;12.70;99.90;;;;;;4990140;28;20041;-82
2022/11/03 01:38:43;;;;;;;12.82;2.80;;;12.70;99.90;;;;;;4991069;28;20121;-82
2022/11/03 01:41:16;;;;;;;9.13;2.53;;;12.70;99.90;;;;;;4982145;28;20042;-82
2022/11/03 01:44:07;;;;;;;9.48;2.33;;;12.70;99.90;;;;;;4977782;28;20061;-88
2022/11/03 01:46:59;;;;;;;13.98;2.33;;;12.70;99.90;;;;;;4976319;28;20041;-92
2022/11/03 01:49:37;;;;;;;12.45;3.10;;;12.60;99.90;;;;;;4993380;28;20046;-84
2022/11/03 01:52:15;;;;;;;11.93;2.90;;;12.60;99.90;;;;;;4993540;28;20035;-84
2022/11/03 01:54:44;;;;;;;13.35;2.63;;;12.60;99.90;;;;;;4980105;28;20541;-84
2022/11/03 01:57:15;;;;;;;12.98;2.33;;;12.60;99.90;;;;;;4993527;28;20031;-84
2022/11/03 01:59:44;;;;;;;11.32;2.58;;;12.50;99.90;;;;;;5008314;28;20058;-84
2022/11/03 02:02:10;;;;;;;13.95;2.55;;;12.60;99.90;;;;;;4993667;28;20042;-84
2022/11/03 02:04:36;;;;;;;11.97;2.80;;;12.60;99.90;;;;;;4993405;28;20426;-84
2022/11/03 02:07:22;;;;;;;11.80;2.87;;;12.60;99.90;;;;;;4975849;28;20535;-84
2022/11/03 02:09:48;;;;;;;10.13;2.90;;;12.50;99.90;;;;;;4993253;28;20057;-84
2022/11/03 02:12:16;;;;;;;11.98;2.55;;;12.50;99.90;;;;;;4993385;28;20494;-84
2022/11/03 02:14:54;;;;;;;9.77;2.50;;;12.50;99.90;;;;;;4975932;28;20036;-84
2022/11/03 02:17:22;;;;;;;13.70;2.95;;;12.50;99.90;;;;;;4993080;28;20045;-83
2022/11/03 02:20:01;;;;;;;11.77;2.63;;;12.50;99.90;;;;;;4994500;28;20038;-83
2022/11/03 02:23:08;;;;;;;9.60;2.30;;;12.50;99.90;;;;;;4993185;28;20030;-84
2022/11/03 02:25:43;;;;;;;11.20;2.53;;;12.50;99.90;;;;;;4993079;28;20121;-84
2022/11/03 02:28:11;;;;;;;13.07;2.63;;;12.50;99.90;;;;;;4993158;28;20030;-84
2022/11/03 02:30:42;;;;;;;11.10;2.17;;;12.50;99.90;;;;;;4975380;28;20026;-84
2022/11/03 02:33:28;;;;;;;10.87;2.73;;;12.50;99.90;;;;;;4992942;28;20440;-84
2022/11/03 02:36:00;;;;;;;11.57;2.77;;;12.50;99.90;;;;;;4964873;28;20080;-84
2022/11/03 02:38:29;;;;;;;9.03;2.10;;;12.50;99.90;;;;;;4992920;28;20438;-84
2022/11/03 02:41:00;;;;;;;12.73;2.85;;;12.50;99.90;;;;;;4992874;28;20516;-84
2022/11/03 02:43:27;;;;;;;12.50;3.07;;;12.50;99.90;;;;;;4992956;28;20031;-84
2022/11/03 02:45:55;;;;;;;13.63;2.73;;;12.50;99.90;;;;;;4992571;28;20037;-84
2022/11/03 02:48:21;;;;;;;10.87;3.03;;;12.50;99.90;;;;;;4975097;28;20459;-84
2022/11/03 02:50:50;;;;;;;8.68;2.47;;;12.50;99.90;;;;;;4991242;28;20068;-84
2022/11/03 02:53:16;;;;;;;11.02;2.55;;;12.50;99.90;;;;;;4992589;28;20464;-84
2022/11/03 04:30:23;;;;;;;10.23;3.40;;;12.50;99.90;;;;;;5448824;23;20070;-84
2022/11/03 05:47:24;;;;;;;10.03;2.07;;;12.60;99.90;;;;;;6312430;22;20088;-90
2022/11/03 05:49:58;;;;;;;8.17;2.20;;;12.60;99.90;;;;;;6279981;22;20011;-85
2022/11/03 05:52:26;;;;;;;10.07;2.13;;;12.60;99.90;;;;;;6311115;22;20004;-86
2022/11/03 05:57:51;;;;;;;14.05;3.30;;;12.60;99.90;;;;;;6275000;22;20346;-93
2022/11/03 06:00:59;;;;;;;9.15;2.30;;;12.60;99.90;;;;;;6273354;22;20008;-88
2022/11/03 06:07:24;;;;;;;10.93;2.60;;;12.60;99.90;;;;;;6243948;23;20126;-83
2022/11/03 06:10:21;;;;;;;10.13;2.60;;;12.60;99.90;;;;;;6241665;23;20008;-88
2022/11/03 06:13:40;;;;;;;10.80;2.47;;;12.60;99.90;;;;;;6242856;23;20000;-88
2022/11/03 06:16:40;;;;;;;9.17;2.77;;;12.60;99.90;;;;;;6241178;22;20434;-86
2022/11/03 06:19:21;;;;;;;16.83;5.07;;;12.60;99.90;;;;;;6335178;22;20006;-84
2022/11/03 06:21:50;;;;;;;11.27;3.47;;;12.60;99.90;;;;;;6307207;22;20333;-84
2022/11/03 06:24:17;;;;;;;9.88;3.05;;;12.60;99.90;;;;;;6333368;22;20010;-85
2022/11/03 06:26:46;;;;;;;11.60;2.57;;;12.60;99.90;;;;;;6333201;22;20002;-84
2022/11/03 06:29:17;;;;;;;9.20;2.90;;;12.60;99.90;;;;;;6305631;22;20018;-84
2022/11/03 06:31:45;;;;;;;8.80;2.83;;;12.60;99.90;;;;;;6333404;22;20030;-84
2022/11/03 06:34:27;;;;;;;9.83;2.40;;;12.60;99.90;;;;;;6332887;22;20033;-84
2022/11/03 06:36:55;;;;;;;10.43;2.38;;;12.60;99.90;;;;;;6333083;22;20072;-84
2022/11/03 06:39:23;;;;;;;12.80;2.90;;;12.60;99.90;;;;;;6333926;22;20017;-83
2022/11/03 06:41:49;;;;;;;18.20;3.70;;;12.60;99.90;;;;;;6334594;22;20018;-84
2022/11/03 06:44:22;;;;;;;10.53;3.27;;;12.60;99.90;;;;;;6335037;22;20003;-84
2022/11/03 06:46:48;;;;;;;10.53;3.00;;;12.70;99.90;;;;;;6307499;22;20093;-84
2022/11/03 06:49:40;;;;;;;11.37;2.83;;;12.60;99.90;;;;;;6335100;22;20038;-84
2022/11/03 06:52:28;;;;;;;12.07;2.60;;;12.70;99.90;;;;;;6302143;22;20032;-84
2022/11/03 06:55:24;;;;;;;12.63;2.67;;;12.70;99.90;;;;;;6335429;22;20006;-84
2022/11/03 06:57:53;;;;;;;9.40;2.70;;;12.70;99.90;;;;;;6335208;22;20027;-84
2022/11/03 07:00:22;;;;;;;14.30;2.60;;;12.60;99.90;;;;;;6336969;22;20022;-83
2022/11/03 07:02:54;;;;;;;15.47;2.53;;;12.70;99.90;;;;;;6344103;22;20010;-84
2022/11/03 07:05:23;;;;;;;10.13;2.37;;;12.70;99.90;;;;;;6342624;22;19999;-84
2022/11/03 07:07:54;;;;;;;8.63;2.75;;;12.60;99.90;;;;;;6334330;22;20056;-84
2022/11/03 07:10:26;;;;;;;10.47;3.17;;;12.70;99.90;;;;;;6306766;22;20056;-85
2022/11/03 07:12:53;;;;;;;10.80;2.38;;;12.70;99.90;;;;;;6307058;22;20338;-84
2022/11/03 07:33:26;;;;;;;9.25;2.40;;;14.50;99.90;;;;;;6283628;22;20059;-94
2022/11/03 07:36:36;;;;;;;9.38;3.33;;;14.20;99.90;;;;;;6188961;23;20074;-91
2022/11/03 07:39:37;;;;;;;12.05;2.63;;;14.00;99.90;;;;;;6237424;22;20479;-87
2022/11/03 07:42:31;;;;;;;8.00;2.65;;;13.70;99.90;;;;;;6263451;22;20457;-90
2022/11/03 07:45:47;;;;;;;;;;;;;;;;;;;;;
2022/11/03 07:48:47;;;;;;;9.40;2.95;;;13.50;99.90;;;;;;6336739;22;20495;-89
2022/11/03 07:51:21;;;;;;;10.00;2.85;;;13.50;99.90;;;;;;6339256;22;20007;-85
2022/11/03 07:53:49;;;;;;;11.95;2.78;;;13.50;99.90;;;;;;6338126;22;20003;-85
2022/11/03 07:59:58;;;;;;;10.57;2.75;;;13.40;99.90;;;;;;6187249;23;20083;-85
2022/11/03 08:09:23;;;;;;;7.88;2.85;;;13.40;99.90;;;;;;6325563;22;20019;-89
2022/11/03 08:11:50;;;;;;;13.02;2.75;;;13.40;99.90;;;;;;6340405;22;20029;-86
2022/11/03 08:14:59;;;;;;;13.07;3.47;;;13.40;99.90;;;;;;6337942;22;20014;-90
2022/11/03 08:17:25;;;;;;;10.63;2.80;;;13.40;99.90;;;;;;6312806;22;20005;-84
2022/11/03 08:20:14;;;;;;;13.40;2.70;;;13.40;99.90;;;;;;6306911;22;20035;-89
2022/11/03 08:23:00;;;;;;;9.90;2.30;;;13.40;99.90;;;;;;6157123;22;20013;-85
2022/11/03 08:26:06;;;;;;;10.77;2.58;;;13.40;99.90;;;;;;6284789;22;20013;-95
2022/11/03 08:29:58;;;;;;;12.57;2.50;;;13.40;99.90;;;;;;6236602;23;20012;-92
2022/11/03 08:32:57;;;;;;;12.52;2.42;;;13.40;99.90;;;;;;6240515;23;20012;-90
2022/11/03 08:37:58;;;;;;;14.13;3.67;;;13.40;99.90;;;;;;6244756;23;20441;-87
2022/11/03 08:40:24;;;;;;;12.55;3.65;;;13.40;99.90;;;;;;6217325;23;20012;-85
2022/11/03 08:42:52;;;;;;;12.93;2.70;;;13.40;99.90;;;;;;6242403;23;20065;-87
2022/11/03 08:45:26;;;;;;;8.52;3.17;;;13.40;99.90;;;;;;6224582;22;20016;-89
2022/11/03 08:48:20;;;;;;;9.88;3.05;;;13.40;99.90;;;;;;6273991;22;20018;-91
2022/11/03 09:03:10;;;;;;;17.23;3.53;;;13.50;99.90;;;;;;6287342;22;20082;-87
2022/11/03 09:05:37;;;;;;;12.05;3.30;;;13.50;99.90;;;;;;6269055;22;20442;-79
2022/11/03 09:08:02;;;;;;;11.48;2.70;;;13.50;99.90;;;;;;6301027;22;20011;-79
2022/11/03 09:10:31;;;;;;;11.88;3.15;;;13.60;99.90;;;;;;6303506;22;20003;-88
2022/11/03 09:12:59;;;;;;;10.25;2.83;;;13.60;99.90;;;;;;6276214;22;20133;-79
2022/11/03 09:15:25;;;;;;;12.07;3.13;;;13.60;99.90;;;;;;6302100;22;20413;-83
2022/11/03 09:17:50;;;;;;;11.20;2.70;;;13.70;99.90;;;;;;6300180;22;20022;-80
2022/11/03 09:20:17;;;;;;;11.32;3.08;;;13.70;99.90;;;;;;6273400;22;20121;-79
2022/11/03 09:22:42;;;;;;;11.40;3.53;;;13.70;99.90;;;;;;6300485;22;20030;-80
2022/11/03 09:25:08;;;;;;;11.95;3.40;;;13.70;99.90;;;;;;6303278;22;20376;-81
2022/11/03 09:27:34;;;;;;;13.75;3.20;;;13.80;99.90;;;;;;6303935;22;20307;-82
2022/11/03 09:30:00;;;;;;;10.98;3.33;;;13.80;99.90;;;;;;6304370;22;20019;-82
2022/11/03 09:32:25;;;;;;;7.45;2.85;;;13.80;99.90;;;;;;6303759;22;20007;-83
2022/11/03 09:34:57;;;;;;;10.48;3.13;;;13.90;99.90;;;;;;6304180;22;20011;-87
2022/11/03 09:37:23;;;;;;;9.55;2.60;;;13.90;99.90;;;;;;6303523;22;20022;-86
2022/11/03 09:39:49;;;;;;;11.90;3.00;;;14.00;99.90;;;;;;6218054;22;88757;-87
2022/11/03 09:42:16;;;;;;;13.05;2.85;;;14.00;99.90;;;;;;6216638;22;20498;-88
2022/11/03 09:44:42;;;;;;;10.50;2.78;;;14.00;99.90;;;;;;6212396;23;20035;-88
2022/11/03 09:47:14;;;;;;;14.32;4.00;;;14.10;99.90;;;;;;6209612;23;20015;-85
2022/11/03 09:49:40;;;;;;;11.35;3.28;;;14.10;99.90;;;;;;6211471;23;20009;-87
2022/11/03 09:52:08;;;;;;;7.15;2.60;;;14.10;99.90;;;;;;6210646;23;20436;-85
2022/11/03 09:54:34;;;;;;;9.38;2.88;;;14.10;99.90;;;;;;6208772;23;20031;-85
2022/11/03 09:57:11;;;;;;;12.82;3.20;;;14.10;99.90;;;;;;6234661;23;20387;-85
2022/11/03 09:59:39;;;;;;;10.15;2.60;;;14.10;99.90;;;;;;6211533;23;20023;-85
2022/11/03 10:02:20;;;;;;;13.00;3.05;;;14.10;99.90;;;;;;6235230;23;20094;-84
2022/11/03 10:04:45;;;;;;;10.50;2.47;;;14.10;99.90;;;;;;6234593;23;20004;-85
2022/11/03 10:07:11;;;;;;;11.55;2.92;;;14.20;99.90;;;;;;6240162;23;20011;-85
2022/11/03 10:09:42;;;;;;;8.38;2.60;;;14.20;99.90;;;;;;6239869;23;20040;-85
2022/11/03 10:12:09;;;;;;;11.07;2.63;;;14.20;99.90;;;;;;6241914;23;20038;-85
2022/11/03 10:14:35;;;;;;;7.60;2.60;;;14.20;99.90;;;;;;6240898;23;20023;-84
2022/11/03 10:17:01;;;;;;;10.35;2.45;;;14.20;99.90;;;;;;6241184;23;20008;-86
2022/11/03 10:19:27;;;;;;;10.13;2.83;;;14.20;99.90;;;;;;6213989;23;20031;-85
2022/11/03 10:21:53;;;;;;;8.07;2.38;;;14.20;99.90;;;;;;6240613;23;20082;-84
2022/11/03 10:24:18;;;;;;;8.48;2.20;;;14.30;99.90;;;;;;6241218;23;20008;-84
2022/11/03 10:26:46;;;;;;;7.88;2.40;;;14.30;99.90;;;;;;6240976;23;20012;-85
2022/11/03 10:29:24;;;;;;;10.23;2.85;;;14.30;99.90;;;;;;6214234;23;20012;-84
2022/11/03 10:31:57;;;;;;;9.77;2.50;;;14.30;99.90;;;;;;6241773;23;20252;-82
2022/11/03 10:34:36;;;;;;;7.82;2.22;;;14.40;99.90;;;;;;6240642;23;20011;-80
2022/11/03 10:37:10;;;;;;;;;;;14.40;99.90;;;;;;6242028;23;20078;-81
2022/11/03 10:39:36;;;;;;;8.52;2.33;;;14.40;99.90;;;;;;6241898;23;19911;-82
2022/11/03 10:42:02;;;;;;;8.70;2.33;;;14.50;99.90;;;;;;6242492;23;20015;-80
2022/11/03 10:44:29;;;;;;;7.95;2.10;;;14.50;99.90;;;;;;6242552;23;20008;-82
2022/11/03 10:47:03;;;;;;;7.93;2.00;;;14.50;99.90;;;;;;6241298;23;20075;-83
2022/11/03 10:49:35;;;;;;;9.23;2.20;;;14.50;99.90;;;;;;6241199;23;20315;-83
2022/11/03 10:52:13;;;;;;;;;;;14.50;99.90;;;;;;6215747;23;20319;-83
2022/11/03 10:54:38;;;;;;;8.02;2.67;;;14.50;99.90;;;;;;6242070;23;20344;-83
2022/11/03 10:57:05;;;;;;;9.80;2.65;;;14.50;99.90;;;;;;6241453;23;20078;-84
2022/11/03 10:59:33;;;;;;;8.45;2.42;;;14.50;99.90;;;;;;6241861;23;20427;-83
2022/11/03 11:02:00;;;;;;;10.63;3.22;;;14.60;99.90;;;;;;6241936;23;20280;-83
2022/11/03 11:04:26;;;;;;;12.07;2.60;;;14.60;99.90;;;;;;6214649;23;20015;-83
2022/11/03 11:06:52;;;;;;;6.30;2.40;;;14.60;99.90;;;;;;6241996;23;20391;-82
2022/11/03 11:09:27;;;;;;;9.10;2.38;;;14.60;99.90;;;;;;6241865;23;20460;-81
2022/11/03 11:12:25;;;;;;;9.32;2.03;;;14.70;99.90;;;;;;6242590;23;20079;-82
2022/11/03 11:14:59;;;;;;;6.88;2.00;;;14.80;99.90;;;;;;6175209;23;20019;-81
2022/11/03 11:17:42;;;;;;;6.55;2.00;;;14.80;99.90;;;;;;6241217;23;20316;-82
2022/11/03 11:20:41;;;;;;;8.60;1.95;;;14.80;99.90;;;;;;6243715;22;20016;-94
2022/11/03 11:26:26;;;;;;;8.38;2.22;;;14.90;99.90;;;;;;6268775;22;20035;-84
2022/11/03 11:29:07;;;;;;;5.60;1.95;;;14.90;99.90;;;;;;6272837;22;20000;-84
2022/11/03 11:31:34;;;;;;;8.93;2.35;;;14.90;99.90;;;;;;6272217;22;20008;-84
2022/11/03 11:34:09;;;;;;;5.53;1.55;;;15.00;99.90;;;;;;6272418;22;20345;-84
2022/11/03 11:36:40;;;;;;;8.05;1.92;;;15.00;99.90;;;;;;6245066;22;20099;-84
2022/11/03 11:39:27;;;;;;;5.75;1.77;;;15.10;99.90;;;;;;6273012;22;20058;-84
2022/11/03 11:42:18;;;;;;;7.63;1.90;;;15.10;99.90;;;;;;6273021;22;20382;-83
2022/11/03 11:44:45;;;;;;;7.80;1.48;;;15.20;99.90;;;;;;6273010;22;20389;-84
2022/11/03 11:47:21;;;;;;;16.98;2.60;;;15.10;99.90;;;;;;6244757;22;20334;-84
2022/11/03 11:49:47;;;;;;;9.88;2.10;;;15.10;99.90;;;;;;6271679;22;20007;-83
2022/11/03 11:52:14;;;;;;;7.63;1.77;;;15.20;99.90;;;;;;6272904;22;20007;-82
2022/11/03 11:54:42;;;;;;;12.27;2.45;;;15.20;99.90;;;;;;6272596;22;20186;-81
2022/11/03 11:57:20;;;;;;;10.30;1.88;;;15.20;99.90;;;;;;6272716;22;20007;-83
2022/11/03 11:59:47;;;;;;;4.85;1.35;;;15.20;99.90;;;;;;6270695;22;20034;-83
2022/11/03 12:02:22;;;;;;;8.07;1.90;;;15.20;99.90;;;;;;6271169;22;20011;-83
2022/11/03 12:04:58;;;;;;;6.78;1.95;;;15.20;99.90;;;;;;6243413;22;20459;-83
2022/11/03 12:07:34;;;;;;;5.85;1.80;;;15.10;99.90;;;;;;6271714;22;20008;-82
2022/11/03 12:10:26;;;;;;;6.47;1.67;;;15.10;99.90;;;;;;6270337;22;20007;-83
2022/11/03 12:12:53;;;;;;;9.18;2.28;;;15.00;99.90;;;;;;6244936;22;20637;-83
2022/11/03 12:15:47;;;;;;;9.10;1.85;;;15.00;99.90;;;;;;6271544;22;20035;-83
2022/11/03 12:18:40;;;;;;;6.43;2.03;;;15.00;99.90;;;;;;6270108;22;20434;-83
2022/11/03 12:21:30;;;;;;;11.05;1.70;;;15.00;99.90;;;;;;6255237;22;20007;-83
2022/11/03 12:23:56;;;;;;;10.80;2.13;;;14.90;99.90;;;;;;6268230;22;20070;-83
2022/11/03 12:26:34;;;;;;;7.15;1.77;;;14.90;99.90;;;;;;6272667;22;20020;-88
2022/11/03 12:32:30;;;;;;;6.43;1.42;;;14.90;99.90;;;;;;6271502;22;20026;-86
2022/11/03 12:34:55;;;;;;;5.45;1.40;;;14.90;99.90;;;;;;6270572;22;20011;-84
2022/11/03 12:37:22;;;;;;;6.50;1.63;;;14.80;99.90;;;;;;6270422;22;20008;-84
2022/11/03 12:39:48;;;;;;;6.72;1.70;;;14.90;99.90;;;;;;6269822;22;20057;-84
2022/11/03 12:42:13;;;;;;;9.75;2.42;;;14.90;99.90;;;;;;6269993;22;20494;-84
2022/11/03 12:44:39;;;;;;;10.05;1.73;;;14.90;99.90;;;;;;6269964;22;20014;-84
2022/11/03 12:47:05;;;;;;;9.25;1.75;;;15.00;99.90;;;;;;6269282;22;20003;-84
2022/11/03 12:49:31;;;;;;;8.88;2.60;;;15.00;99.90;;;;;;6269109;22;20406;-83
2022/11/03 12:52:04;;;;;;;8.70;2.92;;;15.00;99.90;;;;;;6270157;22;20061;-84
2022/11/03 12:54:30;;;;;;;10.57;2.20;;;15.00;99.90;;;;;;6269066;22;20445;-83
2022/11/03 12:56:56;;;;;;;6.72;2.13;;;15.00;99.90;;;;;;6271521;22;20054;-84
2022/11/03 12:59:22;;;;;;;9.68;2.05;;;15.00;99.90;;;;;;6271517;22;20512;-84
2022/11/03 13:01:47;;;;;;;7.70;1.60;;;15.00;99.90;;;;;;6273280;22;20008;-83
2022/11/03 13:04:13;;;;;;;6.18;1.70;;;15.00;99.90;;;;;;6273225;22;20333;-83
2022/11/03 13:06:39;;;;;;;7.05;1.70;;;15.00;99.90;;;;;;6273180;22;20030;-84
2022/11/03 13:09:05;;;;;;;8.43;2.40;;;15.00;99.90;;;;;;6273614;22;20012;-84
2022/11/03 13:14:15;;;;;;;6.75;1.80;;;15.00;99.90;;;;;;6273745;22;20011;-84
2022/11/03 13:16:41;;;;;;;6.53;1.95;;;14.90;99.90;;;;;;6272929;22;20460;-84
2022/11/03 13:19:09;;;;;;;8.02;1.77;;;14.90;99.90;;;;;;6272722;22;20011;-84
2022/11/03 13:21:35;;;;;;;12.93;2.40;;;14.90;99.90;;;;;;6274007;22;20004;-83
2022/11/03 13:24:01;;;;;;;5.00;1.60;;;14.90;99.90;;;;;;6273814;22;20406;-83
2022/11/03 13:26:27;;;;;;;7.63;1.85;;;14.90;99.90;;;;;;6273299;22;20004;-83
2022/11/03 13:28:52;;;;;;;9.25;3.10;;;14.90;99.90;;;;;;6273005;22;20016;-84
2022/11/03 13:31:18;;;;;;;8.80;4.28;;;14.80;99.90;;;;;;6246849;22;20012;-83
2022/11/03 13:33:44;;;;;;;12.18;3.42;;;14.80;99.90;;;;;;6272435;22;20014;-84
2022/11/03 13:36:10;;;;;;;7.30;2.45;;;14.80;99.90;;;;;;6273569;22;20447;-84
2022/11/03 13:38:36;;;;;;;6.78;1.60;;;14.80;99.90;;;;;;6272851;22;20027;-83
2022/11/03 13:41:01;;;;;;;7.35;1.88;;;14.80;99.90;;;;;;6273748;22;20091;-84
2022/11/03 13:43:27;;;;;;;6.07;1.73;;;14.80;99.90;;;;;;6273135;22;20000;-83
2022/11/03 13:45:53;;;;;;;7.45;1.50;;;14.80;99.90;;;;;;6273236;22;20078;-84
2022/11/03 13:48:19;;;;;;;9.40;1.73;;;14.90;99.90;;;;;;6272353;22;20064;-83
2022/11/03 13:50:49;;;;;;;6.05;1.60;;;14.80;99.90;;;;;;6273099;22;20004;-84
2022/11/03 13:53:15;;;;;;;7.75;2.08;;;14.80;99.90;;;;;;6272889;22;20073;-84
2022/11/03 13:55:40;;;;;;;7.30;1.90;;;14.80;99.90;;;;;;6273074;22;20015;-84
2022/11/03 13:58:06;;;;;;;17.73;3.00;;;14.90;99.90;;;;;;6273683;22;20035;-83
2022/11/03 14:00:32;;;;;;;7.53;1.98;;;14.80;99.90;;;;;;6273120;22;20482;-86
2022/11/03 14:02:58;;;;;;;6.50;1.92;;;14.80;99.90;;;;;;6273192;22;20084;-85
2022/11/03 14:05:23;;;;;;;5.70;1.85;;;14.90;99.90;;;;;;6245643;22;20085;-85
2022/11/03 14:07:49;;;;;;;6.07;1.92;;;14.90;99.90;;;;;;6246074;22;20003;-85
2022/11/03 14:10:15;;;;;;;7.72;2.05;;;14.90;99.90;;;;;;6246740;22;20435;-85
2022/11/03 14:12:41;;;;;;;4.20;1.75;;;14.90;99.90;;;;;;6273873;22;20004;-85
2022/11/03 14:15:09;;;;;;;4.60;1.40;;;14.90;99.90;;;;;;6271940;22;20086;-85
2022/11/03 14:17:36;;;;;;;4.55;1.50;;;14.80;99.90;;;;;;6271647;22;20014;-86
2022/11/03 14:20:03;;;;;;;6.25;1.70;;;14.80;99.90;;;;;;6270698;22;20011;-86
2022/11/03 14:22:32;;;;;;;9.20;1.60;;;14.80;99.90;;;;;;6272546;22;20431;-85
2022/11/03 14:24:58;;;;;;;;;;;14.80;99.90;;;;;;6272696;22;20011;-86
2022/11/03 14:27:24;;;;;;;5.47;1.63;;;14.70;99.90;;;;;;6244878;22;19913;-86
2022/11/03 14:29:49;;;;;;;8.07;1.90;;;14.70;99.90;;;;;;6270739;22;20008;-85
2022/11/03 14:32:16;;;;;;;5.45;1.35;;;14.70;99.90;;;;;;6272430;22;20011;-86
2022/11/03 14:34:43;;;;;;;4.95;1.45;;;14.70;99.90;;;;;;6270854;22;20011;-85
2022/11/03 14:37:09;;;;;;;8.77;2.25;;;14.70;99.90;;;;;;6271929;22;20022;-86
2022/11/03 14:39:36;;;;;;;5.07;1.65;;;14.60;99.90;;;;;;6271662;22;20010;-85
2022/11/03 14:42:07;;;;;;;5.90;1.70;;;14.60;99.90;;;;;;6245400;22;20101;-86
2022/11/03 14:44:37;;;;;;;6.13;2.55;;;14.60;99.90;;;;;;6271842;22;20011;-86
2022/11/03 14:47:10;;;;;;;7.28;2.15;;;14.60;99.90;;;;;;6243580;22;20004;-86
2022/11/03 14:49:37;;;;;;;7.72;2.10;;;14.60;99.90;;;;;;6271862;22;20083;-86
2022/11/03 14:52:04;;;;;;;4.85;1.77;;;14.50;99.90;;;;;;6245130;22;20077;-85
2022/11/03 14:54:30;;;;;;;5.90;1.98;;;14.50;99.90;;;;;;6271650;22;20537;-86
2022/11/03 14:56:56;;;;;;;5.35;1.80;;;14.50;99.90;;;;;;6244333;22;20034;-86
2022/11/03 14:59:23;;;;;;;10.88;2.30;;;14.50;99.90;;;;;;6244634;22;20117;-85
2022/11/03 15:01:50;;;;;;;6.40;2.40;;;14.40;99.90;;;;;;6219475;22;20544;-86
2022/11/03 15:04:16;;;;;;;4.55;2.10;;;14.40;99.90;;;;;;6270829;22;20010;-84
2022/11/03 15:06:43;;;;;;;6.65;2.08;;;14.40;99.90;;;;;;6240824;22;20077;-84
2022/11/03 15:09:11;;;;;;;5.32;2.17;;;14.30;99.90;;;;;;6270535;22;20008;-84
2022/11/03 15:11:36;;;;;;;6.20;2.03;;;14.30;99.90;;;;;;6244721;22;20434;-84
2022/11/03 15:14:02;;;;;;;4.88;2.22;;;14.30;99.90;;;;;;6271629;22;20012;-84
2022/11/03 15:16:28;;;;;;;7.93;2.40;;;14.30;99.90;;;;;;6270721;22;20030;-84
2022/11/03 15:18:54;;;;;;;6.88;2.28;;;14.20;99.90;;;;;;6269183;22;20435;-83
2022/11/03 15:21:20;;;;;;;7.57;1.90;;;14.10;99.90;;;;;;6271827;22;20007;-83
2022/11/03 15:23:46;;;;;;;8.40;2.47;;;14.10;99.90;;;;;;6243568;22;20000;-84
2022/11/03 15:26:12;;;;;;;7.68;2.28;;;14.10;99.90;;;;;;6270511;22;20035;-84
2022/11/03 15:28:38;;;;;;;6.93;2.25;;;13.90;99.90;;;;;;6271265;22;20107;-84
2022/11/03 15:31:04;;;;;;;5.30;1.88;;;13.90;99.90;;;;;;6271725;22;20383;-84
2022/11/03 15:33:30;;;;;;;5.72;2.10;;;13.80;99.90;;;;;;6269789;22;20073;-84
2022/11/03 15:35:56;;;;;;;5.07;2.10;;;13.80;99.90;;;;;;6270680;22;20023;-84
2022/11/03 15:38:22;;;;;;;6.78;2.42;;;13.70;99.90;;;;;;6271145;22;20012;-84
2022/11/03 15:40:47;;;;;;;9.57;3.03;;;13.80;99.90;;;;;;6270992;22;20008;-83
2022/11/03 15:43:13;;;;;;;7.63;2.88;;;13.70;99.90;;;;;;6270272;22;20011;-84
2022/11/03 15:45:39;;;;;;;7.10;2.72;;;13.70;99.90;;;;;;6270429;22;20003;-84
2022/11/03 15:48:05;;;;;;;6.95;2.40;;;13.60;99.90;;;;;;6270215;22;20008;-84
2022/11/03 15:50:31;;;;;;;7.93;2.65;;;13.60;99.90;;;;;;6242992;22;20007;-84
2022/11/03 15:52:57;;;;;;;11.25;4.00;;;13.50;99.90;;;;;;6244646;22;20015;-82
2022/11/03 15:55:25;;;;;;;8.00;2.78;;;13.60;99.90;;;;;;6270174;22;20708;-83
2022/11/03 15:57:51;;;;;;;6.60;2.60;;;13.50;99.90;;;;;;6243485;22;20499;-84
2022/11/03 16:00:18;;;;;;;5.80;2.53;;;13.50;99.90;;;;;;6270374;22;20011;-84
2022/11/03 16:02:46;;;;;;;9.60;3.33;;;13.50;99.90;;;;;;6243408;22;20497;-84
2022/11/03 16:05:12;;;;;;;6.20;2.47;;;13.40;99.90;;;;;;6241638;22;20030;-83
2022/11/03 16:07:39;;;;;;;6.93;2.63;;;13.40;99.90;;;;;;6270143;22;20859;-84
2022/11/03 16:10:05;;;;;;;10.30;3.42;;;13.30;99.90;;;;;;6270557;22;20075;-84
2022/11/03 16:12:31;;;;;;;6.72;2.88;;;13.30;99.90;;;;;;6270949;22;20449;-84
2022/11/03 16:14:59;;;;;;;7.55;3.33;;;13.30;99.90;;;;;;6257169;22;20051;-81
2022/11/03 16:17:25;;;;;;;7.57;3.08;;;13.30;99.90;;;;;;6214695;23;20016;-86
2022/11/03 16:19:51;;;;;;;6.70;2.72;;;13.30;99.90;;;;;;6239582;23;20015;-83
2022/11/03 16:22:16;;;;;;;6.68;2.75;;;13.20;99.90;;;;;;6241433;23;20384;-84
2022/11/03 16:24:45;;;;;;;9.38;3.20;;;13.20;99.90;;;;;;6240924;23;20657;-84
2022/11/03 16:27:11;;;;;;;6.20;2.75;;;13.20;99.90;;;;;;6238227;23;20016;-84
2022/11/03 16:29:36;;;;;;;6.13;2.60;;;13.20;99.90;;;;;;6240535;23;20004;-84
2022/11/03 16:32:02;;;;;;;7.80;2.67;;;13.20;99.90;;;;;;6240008;22;20004;-84
2022/11/03 16:34:28;;;;;;;6.35;2.50;;;13.20;99.90;;;;;;6238470;23;20004;-84
2022/11/03 16:36:55;;;;;;;8.25;3.00;;;13.20;99.90;;;;;;6238301;23;20442;-84
2022/11/03 16:39:20;;;;;;;6.35;2.40;;;13.20;99.90;;;;;;6240652;22;20325;-85
2022/11/03 16:41:46;;;;;;;6.82;2.58;;;13.10;99.90;;;;;;6240701;23;20028;-85
2022/11/03 16:44:12;;;;;;;8.07;2.63;;;13.20;99.90;;;;;;6241571;23;20500;-84
2022/11/03 16:46:38;;;;;;;9.98;3.15;;;13.20;99.90;;;;;;6240781;23;20008;-84
2022/11/03 16:49:03;;;;;;;6.95;2.63;;;13.20;99.90;;;;;;6240366;22;20004;-84
2022/11/03 16:51:29;;;;;;;5.38;2.33;;;13.20;99.90;;;;;;6241304;23;20075;-85
2022/11/03 16:53:57;;;;;;;6.28;2.45;;;13.20;99.90;;;;;;6265097;22;20008;-84
2022/11/03 16:56:23;;;;;;;8.32;2.70;;;13.20;99.90;;;;;;6239733;23;20036;-85